Time;durP1;ratioP1;P1;durP2;ratioP2;P2;SDS_P1;SDS_P2;PMS_P1;PMS_P2;Temp;Humidity;BMP_temperature;BMP_pressure;BME280_temperature;BME280_humidity;BME280_pressure;Samples;Min_cycle;Max_cycle;Signal;HPM_P1;HPM_P2
2023/10/23 00:01:17;;;;;;;1.33;1.10;;;22.30;44.50;;;;;;5022979;28;20234;-66
2023/10/23 00:03:42;;;;;;;1.77;1.67;;;22.20;44.50;;;;;;5022225;28;20481;-68
2023/10/23 00:06:08;;;;;;;1.40;0.90;;;22.20;44.50;;;;;;5019188;28;20794;-67
2023/10/23 00:08:34;;;;;;;1.10;1.00;;;22.20;44.50;;;;;;5024314;28;20226;-68
2023/10/23 00:10:59;;;;;;;1.67;0.87;;;22.20;44.50;;;;;;5017630;28;20646;-66
2023/10/23 00:13:25;;;;;;;1.00;0.90;;;22.20;44.50;;;;;;5020103;28;20238;-67
2023/10/23 00:15:50;;;;;;;1.30;0.90;;;22.20;44.50;;;;;;5005801;28;20230;-68
2023/10/23 00:18:16;;;;;;;1.47;1.10;;;22.20;44.50;;;;;;5018305;28;20368;-66
2023/10/23 00:20:41;;;;;;;1.20;0.90;;;22.20;44.50;;;;;;5024929;28;20254;-65
2023/10/23 00:23:07;;;;;;;1.50;1.10;;;22.20;44.50;;;;;;5019414;28;20252;-68
2023/10/23 00:25:33;;;;;;;1.30;1.20;;;22.20;44.50;;;;;;5019208;28;20227;-66
2023/10/23 00:27:59;;;;;;;1.20;1.10;;;22.20;44.60;;;;;;5031065;28;20272;-67
2023/10/23 00:30:25;;;;;;;1.10;1.00;;;22.20;44.60;;;;;;5027981;28;20462;-65
2023/10/23 00:32:50;;;;;;;1.20;1.03;;;22.20;44.50;;;;;;5027067;28;21441;-67
2023/10/23 00:35:16;;;;;;;1.47;1.37;;;22.20;44.50;;;;;;5020632;28;20233;-65
2023/10/23 00:37:42;;;;;;;1.13;1.03;;;22.20;44.50;;;;;;5018897;28;20229;-65
2023/10/23 00:40:08;;;;;;;1.00;0.90;;;22.20;44.50;;;;;;5020628;28;20645;-67
2023/10/23 00:42:33;;;;;;;1.10;1.00;;;22.20;44.50;;;;;;5018624;28;20467;-65
2023/10/23 00:44:59;;;;;;;1.20;1.10;;;22.20;44.50;;;;;;5027272;28;20230;-66
2023/10/23 00:47:26;;;;;;;1.10;1.00;;;22.20;44.60;;;;;;5023539;28;20279;-68
2023/10/23 00:49:52;;;;;;;1.00;0.90;;;22.20;44.60;;;;;;5019499;28;20229;-65
2023/10/23 00:52:18;;;;;;;0.90;0.80;;;22.20;44.60;;;;;;5019897;28;20463;-66
2023/10/23 00:54:45;;;;;;;0.90;0.80;;;22.20;44.50;;;;;;5025615;28;21634;-67
2023/10/23 00:57:10;;;;;;;0.80;0.80;;;22.20;44.60;;;;;;5024151;28;21843;-65
2023/10/23 00:59:36;;;;;;;1.60;1.00;;;22.20;44.60;;;;;;5006521;28;20471;-68
2023/10/23 01:02:03;;;;;;;0.83;0.83;;;22.20;44.50;;;;;;5025816;28;20225;-65
2023/10/23 01:04:29;;;;;;;1.20;1.10;;;22.20;44.60;;;;;;5023703;28;21050;-65
2023/10/23 01:06:55;;;;;;;1.20;0.93;;;22.20;44.50;;;;;;5019543;28;20463;-65
2023/10/23 01:09:21;;;;;;;1.00;0.90;;;22.20;44.50;;;;;;5020943;28;20221;-66
2023/10/23 01:11:46;;;;;;;0.83;0.83;;;22.20;44.50;;;;;;5018217;28;20463;-66
2023/10/23 01:14:12;;;;;;;1.10;1.00;;;22.20;44.50;;;;;;5027680;28;20242;-69
2023/10/23 01:16:37;;;;;;;1.10;1.00;;;22.20;44.50;;;;;;5028005;28;20233;-68
2023/10/23 01:19:03;;;;;;;1.00;0.90;;;22.20;44.50;;;;;;5023905;28;20234;-68
2023/10/23 01:21:28;;;;;;;2.90;1.23;;;22.20;44.60;;;;;;5022354;28;21672;-65
2023/10/23 01:23:58;;;;;;;1.20;1.10;;;22.20;44.60;;;;;;5022885;28;20249;-68
2023/10/23 01:26:24;;;;;;;1.37;1.00;;;22.20;44.60;;;;;;5020070;28;20254;-67
2023/10/23 01:28:49;;;;;;;2.07;1.00;;;22.20;44.60;;;;;;5003334;28;21017;-66
2023/10/23 01:31:16;;;;;;;0.80;0.77;;;22.20;44.50;;;;;;5032447;28;20731;-69
2023/10/23 01:33:42;;;;;;;1.23;1.13;;;22.20;44.60;;;;;;5033618;28;20316;-66
2023/10/23 01:36:07;;;;;;;0.87;0.87;;;22.20;44.60;;;;;;5031209;28;20597;-66
2023/10/23 01:38:33;;;;;;;0.90;0.87;;;22.20;44.50;;;;;;5015382;28;20226;-66
2023/10/23 01:40:58;;;;;;;1.67;0.90;;;22.20;44.60;;;;;;5032103;28;20380;-66
2023/10/23 01:43:24;;;;;;;1.10;1.00;;;22.20;44.60;;;;;;5031811;28;20232;-65
2023/10/23 01:45:49;;;;;;;1.77;1.00;;;22.20;44.60;;;;;;5015798;28;20226;-68
2023/10/23 01:48:15;;;;;;;0.80;0.80;;;22.20;44.60;;;;;;5031339;28;20222;-67
2023/10/23 01:50:40;;;;;;;0.93;0.90;;;22.20;44.60;;;;;;5031620;28;20225;-66
2023/10/23 01:53:06;;;;;;;1.10;1.00;;;22.20;44.60;;;;;;5031943;28;20234;-65
2023/10/23 01:55:33;;;;;;;1.17;1.07;;;22.20;44.60;;;;;;5032700;28;20583;-67
2023/10/23 01:57:59;;;;;;;1.07;0.97;;;22.20;44.70;;;;;;5031695;28;20670;-66
2023/10/23 02:00:25;;;;;;;0.80;0.70;;;22.20;44.70;;;;;;5033589;28;20455;-67
2023/10/23 02:02:50;;;;;;;0.80;0.80;;;22.20;45.60;;;;;;5030298;28;20610;-65
2023/10/23 02:05:16;;;;;;;0.93;0.90;;;22.10;44.60;;;;;;5021897;28;20308;-66
2023/10/23 02:07:42;;;;;;;1.43;0.90;;;22.10;44.70;;;;;;5021763;28;20225;-66
2023/10/23 02:10:08;;;;;;;1.53;0.90;;;22.20;44.60;;;;;;5017374;28;20760;-68
2023/10/23 02:12:33;;;;;;;1.37;1.20;;;22.20;44.70;;;;;;5023079;28;20467;-66
2023/10/23 02:14:59;;;;;;;1.20;1.10;;;22.20;44.60;;;;;;5021641;28;20593;-68
2023/10/23 02:17:25;;;;;;;0.90;0.90;;;22.20;44.70;;;;;;5019423;28;20226;-65
2023/10/23 02:19:50;;;;;;;1.07;0.90;;;22.20;44.70;;;;;;5026134;28;20991;-68
2023/10/23 02:22:18;;;;;;;1.00;0.90;;;22.20;44.70;;;;;;5022832;28;22283;-68
2023/10/23 02:24:44;;;;;;;1.40;0.90;;;22.10;44.50;;;;;;5027378;28;20226;-66
2023/10/23 02:27:10;;;;;;;1.00;0.80;;;22.10;44.60;;;;;;5026643;28;20466;-68
2023/10/23 02:29:36;;;;;;;1.87;1.23;;;22.10;50.00;;;;;;5022539;28;20458;-68
2023/10/23 02:32:01;;;;;;;0.93;0.83;;;22.10;45.10;;;;;;5032171;28;21190;-66
2023/10/23 02:34:27;;;;;;;1.10;1.00;;;22.10;44.60;;;;;;5033261;28;20321;-65
2023/10/23 02:36:52;;;;;;;0.97;0.87;;;22.10;44.50;;;;;;5024214;28;20319;-66
2023/10/23 02:39:18;;;;;;;1.10;1.00;;;22.10;44.50;;;;;;5027571;28;20566;-68
2023/10/23 02:41:43;;;;;;;0.77;0.77;;;22.10;44.50;;;;;;5007911;28;20587;-65
2023/10/23 02:44:10;;;;;;;1.13;1.00;;;22.10;44.60;;;;;;5022911;28;20226;-68
2023/10/23 02:46:38;;;;;;;0.87;0.87;;;22.10;44.50;;;;;;5023252;28;20218;-66
2023/10/23 02:49:04;;;;;;;0.80;0.70;;;22.10;44.50;;;;;;5024792;28;20458;-67
2023/10/23 02:51:30;;;;;;;1.00;0.90;;;22.10;44.50;;;;;;5008983;28;20941;-67
2023/10/23 02:53:56;;;;;;;0.90;0.90;;;22.10;44.50;;;;;;5026850;28;20490;-65
2023/10/23 02:56:21;;;;;;;1.10;1.00;;;22.10;44.60;;;;;;5028668;28;20357;-65
2023/10/23 02:58:47;;;;;;;1.13;1.03;;;22.10;44.50;;;;;;5028838;28;20964;-65
2023/10/23 03:01:18;;;;;;;1.10;1.00;;;22.10;44.50;;;;;;5024544;28;20249;-66
2023/10/23 03:03:44;;;;;;;0.80;0.80;;;22.10;44.50;;;;;;5024945;28;20299;-66
2023/10/23 03:06:10;;;;;;;0.97;0.87;;;22.10;44.50;;;;;;5024407;28;20493;-69
2023/10/23 03:08:35;;;;;;;1.10;1.00;;;22.10;44.50;;;;;;5023613;28;20218;-68
2023/10/23 03:11:01;;;;;;;0.90;0.90;;;22.10;44.50;;;;;;5023861;28;20231;-68
2023/10/23 03:13:26;;;;;;;1.10;1.00;;;22.10;44.50;;;;;;5021560;28;20645;-66
2023/10/23 03:15:52;;;;;;;1.20;1.10;;;22.10;44.60;;;;;;5020418;28;20251;-66
2023/10/23 03:18:18;;;;;;;0.90;0.90;;;22.10;44.60;;;;;;5024697;28;20305;-66
2023/10/23 03:20:43;;;;;;;1.00;0.90;;;22.10;44.60;;;;;;5023512;28;20226;-70
2023/10/23 03:23:09;;;;;;;1.00;0.90;;;22.10;44.50;;;;;;5023685;28;20591;-68
2023/10/23 03:25:34;;;;;;;0.80;0.80;;;22.10;44.50;;;;;;5023185;28;20221;-67
2023/10/23 03:28:00;;;;;;;1.10;0.90;;;22.10;44.50;;;;;;5032711;28;20222;-66
2023/10/23 03:30:26;;;;;;;2.20;1.23;;;22.10;44.50;;;;;;5026954;28;20230;-68
2023/10/23 03:32:51;;;;;;;0.93;0.83;;;22.10;44.50;;;;;;5024049;28;20324;-66
2023/10/23 03:35:17;;;;;;;0.80;0.80;;;22.10;44.50;;;;;;5029326;28;20305;-68
2023/10/23 03:37:42;;;;;;;1.10;1.00;;;22.10;44.60;;;;;;5036171;28;20748;-66
2023/10/23 03:40:10;;;;;;;1.07;0.93;;;22.10;44.50;;;;;;5023518;28;20225;-66
2023/10/23 03:42:36;;;;;;;1.00;0.90;;;22.10;44.50;;;;;;5026568;28;20257;-68
2023/10/23 03:45:02;;;;;;;0.97;0.90;;;22.10;44.50;;;;;;5023436;28;21392;-68
2023/10/23 03:47:27;;;;;;;1.00;0.90;;;22.10;44.50;;;;;;5027912;28;20609;-66
2023/10/23 03:49:53;;;;;;;1.10;1.00;;;22.10;44.50;;;;;;5025038;28;20291;-67
2023/10/23 03:52:18;;;;;;;1.10;1.00;;;22.10;44.50;;;;;;5025086;28;20226;-67
2023/10/23 03:54:44;;;;;;;0.80;0.80;;;22.00;44.40;;;;;;5020228;28;20230;-66
2023/10/23 03:57:09;;;;;;;1.27;1.00;;;22.10;44.50;;;;;;5026338;28;20261;-69
2023/10/23 03:59:35;;;;;;;0.83;0.80;;;22.00;44.50;;;;;;5021346;28;20222;-67
2023/10/23 04:02:00;;;;;;;1.77;0.80;;;22.00;44.40;;;;;;5026621;28;20258;-66
2023/10/23 04:04:26;;;;;;;1.20;1.10;;;22.00;44.40;;;;;;5021672;28;20225;-69
2023/10/23 04:06:51;;;;;;;0.97;0.90;;;22.00;44.50;;;;;;5026296;28;20237;-66
2023/10/23 04:09:17;;;;;;;1.53;1.43;;;22.00;44.40;;;;;;5024530;28;20374;-67
2023/10/23 04:11:42;;;;;;;1.20;0.90;;;22.00;44.40;;;;;;5028331;28;20332;-65
2023/10/23 04:14:09;;;;;;;1.00;0.90;;;22.00;44.50;;;;;;5024467;28;20237;-64
2023/10/23 04:16:34;;;;;;;1.03;1.00;;;22.00;44.40;;;;;;5034027;28;20244;-65
2023/10/23 04:19:00;;;;;;;2.73;1.20;;;22.00;44.40;;;;;;5029672;28;20528;-65
2023/10/23 04:21:25;;;;;;;1.00;0.90;;;22.10;44.40;;;;;;5031198;28;20230;-65
2023/10/23 04:23:51;;;;;;;1.00;0.90;;;22.10;44.40;;;;;;5030369;28;20237;-68
2023/10/23 04:26:16;;;;;;;0.90;0.90;;;22.10;44.40;;;;;;5023752;28;20849;-69
2023/10/23 04:28:42;;;;;;;0.90;0.83;;;22.10;44.30;;;;;;5029272;28;20232;-66
2023/10/23 04:31:07;;;;;;;0.90;0.90;;;22.10;44.30;;;;;;5028221;28;20222;-68
2023/10/23 04:33:33;;;;;;;0.90;0.83;;;22.10;44.30;;;;;;5024035;28;20880;-67
2023/10/23 04:35:59;;;;;;;1.10;1.00;;;22.10;44.30;;;;;;5028776;28;20225;-67
2023/10/23 04:38:25;;;;;;;1.10;0.90;;;22.10;44.30;;;;;;5041702;28;20229;-68
2023/10/23 04:40:53;;;;;;;1.20;1.10;;;22.10;44.30;;;;;;5042137;28;20931;-66
2023/10/23 04:43:19;;;;;;;1.00;0.90;;;22.10;44.30;;;;;;5025108;28;20218;-69
2023/10/23 04:45:44;;;;;;;1.20;1.10;;;22.10;44.30;;;;;;5023421;28;20463;-66
2023/10/23 04:48:10;;;;;;;1.10;1.00;;;22.10;44.30;;;;;;5018796;28;20517;-71
2023/10/23 04:50:37;;;;;;;0.87;0.73;;;22.10;44.40;;;;;;5022369;28;20308;-68
2023/10/23 04:53:03;;;;;;;0.80;0.80;;;22.10;44.30;;;;;;5027919;28;20237;-68
2023/10/23 04:55:40;;;;;;;0.90;0.87;;;22.10;44.30;;;;;;5016364;28;20592;-68
2023/10/23 04:58:07;;;;;;;1.03;0.93;;;22.10;44.30;;;;;;5022505;28;21058;-66
2023/10/23 05:00:37;;;;;;;1.53;1.20;;;22.10;44.30;;;;;;5019290;28;20550;-65
2023/10/23 05:03:03;;;;;;;0.80;0.80;;;22.10;44.30;;;;;;5016762;28;20783;-66
2023/10/23 05:05:29;;;;;;;1.27;1.17;;;22.10;44.30;;;;;;5013134;28;20816;-67
2023/10/23 05:07:55;;;;;;;0.80;0.80;;;22.10;44.30;;;;;;5016078;28;20471;-70
2023/10/23 05:10:21;;;;;;;1.00;0.90;;;22.10;44.20;;;;;;5012253;28;20450;-67
2023/10/23 05:12:49;;;;;;;0.90;0.90;;;22.10;44.30;;;;;;5008863;28;20335;-70
2023/10/23 05:15:15;;;;;;;1.67;1.00;;;22.10;44.30;;;;;;5019881;28;21981;-66
2023/10/23 05:17:41;;;;;;;1.40;1.00;;;22.10;44.20;;;;;;5022345;28;20455;-62
2023/10/23 05:20:07;;;;;;;1.20;1.10;;;22.10;44.20;;;;;;5019778;28;20540;-68
2023/10/23 05:22:33;;;;;;;1.03;0.93;;;22.10;44.20;;;;;;5021648;28;20303;-66
2023/10/23 05:24:59;;;;;;;0.80;0.80;;;22.20;44.20;;;;;;5027221;28;20486;-66
2023/10/23 05:27:25;;;;;;;3.17;1.10;;;22.10;44.10;;;;;;5033860;28;20461;-65
2023/10/23 05:29:50;;;;;;;1.10;1.00;;;22.10;44.10;;;;;;5022623;28;20580;-66
2023/10/23 05:32:16;;;;;;;1.50;1.10;;;22.10;44.10;;;;;;5013528;28;20681;-67
2023/10/23 05:34:44;;;;;;;1.30;1.20;;;22.10;44.10;;;;;;5023119;28;20270;-67
2023/10/23 05:37:10;;;;;;;2.70;1.10;;;22.10;44.10;;;;;;5030525;28;20218;-66
2023/10/23 05:39:35;;;;;;;2.47;1.00;;;22.10;43.90;;;;;;5027463;28;20459;-66
2023/10/23 05:42:01;;;;;;;0.93;0.87;;;22.10;43.80;;;;;;5032096;28;20474;-66
2023/10/23 05:44:26;;;;;;;0.90;0.90;;;22.10;43.70;;;;;;5023874;28;20401;-65
2023/10/23 05:46:53;;;;;;;1.77;1.10;;;22.10;43.70;;;;;;5025289;28;20241;-66
2023/10/23 05:49:19;;;;;;;1.00;0.90;;;22.10;43.70;;;;;;5022617;28;20312;-65
2023/10/23 05:51:44;;;;;;;2.20;1.17;;;22.10;43.70;;;;;;5027561;28;21188;-65
2023/10/23 05:54:10;;;;;;;1.40;1.30;;;22.10;43.70;;;;;;5027081;28;20237;-66
2023/10/23 05:56:36;;;;;;;1.20;1.00;;;22.10;43.70;;;;;;5024315;28;20313;-65
2023/10/23 05:59:03;;;;;;;1.17;1.07;;;22.10;43.60;;;;;;5027807;28;20554;-66
2023/10/23 06:01:29;;;;;;;1.00;0.90;;;22.20;43.80;;;;;;5031656;28;20236;-65
2023/10/23 06:03:55;;;;;;;1.10;0.93;;;22.10;43.60;;;;;;5025347;28;20682;-65
2023/10/23 06:06:20;;;;;;;1.20;1.00;;;22.10;43.60;;;;;;5025375;28;20685;-65
2023/10/23 06:08:46;;;;;;;0.90;0.80;;;22.20;43.70;;;;;;5037128;28;20230;-66
2023/10/23 06:11:12;;;;;;;2.50;1.10;;;22.10;43.70;;;;;;5028112;28;20296;-65
2023/10/23 06:13:39;;;;;;;1.60;1.20;;;22.10;43.60;;;;;;5023135;28;20237;-65
2023/10/23 06:16:05;;;;;;;1.57;0.97;;;22.20;43.70;;;;;;5019214;28;20463;-65
2023/10/23 06:18:34;;;;;;;1.30;1.20;;;22.10;43.60;;;;;;5026977;28;20474;-64
2023/10/23 06:21:03;;;;;;;1.10;1.00;;;22.10;43.60;;;;;;5026317;28;20474;-64
2023/10/23 06:23:33;;;;;;;1.30;1.00;;;22.10;43.60;;;;;;5027756;28;20471;-65
2023/10/23 06:25:59;;;;;;;2.57;0.97;;;22.10;43.60;;;;;;5029476;28;20475;-65
2023/10/23 06:28:26;;;;;;;1.53;1.20;;;22.20;43.70;;;;;;5029919;28;20505;-65
2023/10/23 06:30:51;;;;;;;1.60;1.03;;;22.20;43.60;;;;;;5031329;28;20292;-64
2023/10/23 06:33:17;;;;;;;1.07;0.97;;;22.20;43.60;;;;;;5025804;28;21002;-66
2023/10/23 06:35:43;;;;;;;1.63;1.00;;;22.20;43.70;;;;;;5030741;28;20229;-64
2023/10/23 06:38:08;;;;;;;1.30;1.20;;;22.20;43.70;;;;;;5030038;28;20662;-65
2023/10/23 06:40:34;;;;;;;1.40;1.03;;;22.20;43.70;;;;;;5027684;28;20217;-65
2023/10/23 06:42:59;;;;;;;1.20;1.10;;;22.20;43.60;;;;;;5025536;28;21880;-66
2023/10/23 06:45:25;;;;;;;1.17;1.00;;;22.20;43.60;;;;;;5037244;28;20944;-65
2023/10/23 06:47:50;;;;;;;1.30;1.20;;;22.20;43.70;;;;;;5035763;28;21320;-65
2023/10/23 06:50:17;;;;;;;1.50;1.40;;;22.20;43.70;;;;;;5023787;28;20682;-64
2023/10/23 06:52:43;;;;;;;1.07;0.97;;;22.20;43.70;;;;;;5024646;28;20241;-64
2023/10/23 06:55:09;;;;;;;1.20;1.10;;;22.20;43.60;;;;;;5020932;28;20495;-65
2023/10/23 06:57:35;;;;;;;1.53;1.43;;;22.20;43.60;;;;;;5026079;28;20600;-64
2023/10/23 07:00:01;;;;;;;1.30;1.20;;;22.20;43.60;;;;;;5023331;28;20336;-64
2023/10/23 07:02:26;;;;;;;1.37;1.27;;;22.20;43.60;;;;;;5029706;28;20249;-65
2023/10/23 07:04:52;;;;;;;1.93;1.23;;;22.20;43.60;;;;;;5025351;28;20225;-64
2023/10/23 07:07:18;;;;;;;1.30;1.20;;;22.20;43.70;;;;;;5028315;28;20226;-66
2023/10/23 07:09:43;;;;;;;2.70;1.00;;;22.20;43.60;;;;;;5021694;28;20455;-64
2023/10/23 07:12:09;;;;;;;1.33;1.13;;;22.20;43.60;;;;;;5027504;28;20271;-65
2023/10/23 07:14:34;;;;;;;3.57;1.27;;;22.20;43.60;;;;;;5023738;28;20226;-64
2023/10/23 07:17:00;;;;;;;1.30;1.20;;;22.20;43.60;;;;;;5024069;28;20233;-64
2023/10/23 07:19:25;;;;;;;1.27;1.17;;;22.20;43.60;;;;;;5031062;28;20224;-64
2023/10/23 07:21:51;;;;;;;1.23;1.13;;;22.20;43.60;;;;;;5019720;28;20229;-65
2023/10/23 07:24:16;;;;;;;1.10;1.00;;;22.20;43.60;;;;;;5030952;28;20325;-66
2023/10/23 07:26:42;;;;;;;1.23;1.13;;;22.20;43.60;;;;;;5031042;28;20234;-65
2023/10/23 07:29:08;;;;;;;1.30;1.10;;;22.20;44.10;;;;;;5032527;28;20776;-65
2023/10/23 07:31:36;;;;;;;1.20;1.10;;;22.20;43.60;;;;;;5040040;28;20230;-64
2023/10/23 07:34:03;;;;;;;1.40;1.13;;;22.20;43.60;;;;;;5043573;28;20732;-64
2023/10/23 07:36:29;;;;;;;1.57;1.20;;;22.20;43.60;;;;;;5044268;28;20439;-64
2023/10/23 07:38:54;;;;;;;1.30;1.20;;;22.20;43.60;;;;;;5042270;28;20953;-65
2023/10/23 07:41:20;;;;;;;1.30;1.20;;;22.20;43.60;;;;;;5042025;28;20237;-65
2023/10/23 07:43:45;;;;;;;1.20;1.00;;;22.20;43.50;;;;;;5044795;28;20280;-65
2023/10/23 07:46:11;;;;;;;1.37;1.17;;;22.20;43.60;;;;;;5026890;28;20252;-65
2023/10/23 07:48:37;;;;;;;1.30;1.20;;;22.20;43.50;;;;;;5044659;28;20305;-65
2023/10/23 07:51:06;;;;;;;1.33;1.13;;;22.20;43.60;;;;;;5039925;28;20312;-64
2023/10/23 07:53:32;;;;;;;0.90;0.90;;;22.20;43.60;;;;;;5029049;28;20708;-64
2023/10/23 07:55:59;;;;;;;1.07;1.00;;;22.20;43.60;;;;;;5042717;28;20443;-64
2023/10/23 07:58:24;;;;;;;1.87;1.40;;;22.20;43.60;;;;;;5042657;28;20512;-65
2023/10/23 08:00:53;;;;;;;0.93;0.90;;;22.20;43.60;;;;;;5038243;28;20439;-64
2023/10/23 08:03:19;;;;;;;1.03;1.00;;;22.20;43.50;;;;;;5029881;28;20309;-65
2023/10/23 08:05:46;;;;;;;1.10;1.00;;;22.20;43.60;;;;;;5023217;28;20459;-65
2023/10/23 08:08:12;;;;;;;2.07;1.40;;;22.20;43.60;;;;;;5025896;28;20249;-65
2023/10/23 08:10:37;;;;;;;1.00;0.90;;;22.20;43.60;;;;;;5026440;28;21058;-64
2023/10/23 08:13:03;;;;;;;2.60;1.00;;;22.20;43.50;;;;;;5023970;28;20242;-64
2023/10/23 08:15:29;;;;;;;1.00;0.90;;;22.20;43.60;;;;;;5029710;28;20283;-65
2023/10/23 08:17:54;;;;;;;2.40;1.10;;;22.20;43.50;;;;;;5023916;28;20528;-65
2023/10/23 08:20:20;;;;;;;1.23;1.00;;;22.20;43.60;;;;;;5024278;28;20295;-65
2023/10/23 08:22:46;;;;;;;2.60;1.17;;;22.20;43.60;;;;;;5008127;28;20229;-64
2023/10/23 08:25:12;;;;;;;2.03;1.40;;;22.20;43.60;;;;;;5030167;28;20518;-64
2023/10/23 08:27:37;;;;;;;0.90;0.90;;;22.20;43.60;;;;;;5035410;28;20897;-65
2023/10/23 08:30:04;;;;;;;1.20;1.10;;;22.20;43.60;;;;;;5028911;28;20218;-64
2023/10/23 08:32:30;;;;;;;1.40;1.00;;;22.20;43.60;;;;;;5028805;28;20347;-64
2023/10/23 08:34:56;;;;;;;1.33;1.00;;;22.20;43.60;;;;;;5026705;28;21707;-64
2023/10/23 08:37:21;;;;;;;1.37;1.27;;;22.20;43.60;;;;;;5027212;28;20257;-64
2023/10/23 08:39:47;;;;;;;1.00;0.90;;;22.20;43.60;;;;;;5022951;28;20261;-64
2023/10/23 08:42:12;;;;;;;1.10;1.00;;;22.20;43.60;;;;;;5022332;28;20226;-64
2023/10/23 08:44:38;;;;;;;1.10;1.00;;;22.20;43.60;;;;;;5027464;28;20234;-64
2023/10/23 08:47:04;;;;;;;1.90;1.03;;;22.20;43.60;;;;;;5025098;28;20233;-64
2023/10/23 08:49:30;;;;;;;1.70;1.20;;;22.20;43.60;;;;;;5024253;28;20334;-64
2023/10/23 08:51:58;;;;;;;0.90;0.90;;;22.20;43.60;;;;;;5014089;28;20584;-64
2023/10/23 08:54:24;;;;;;;1.30;1.00;;;22.20;43.60;;;;;;5037689;28;20478;-64
2023/10/23 08:56:58;;;;;;;3.60;1.10;;;22.20;43.60;;;;;;5033142;28;20482;-65
2023/10/23 08:59:24;;;;;;;1.17;1.00;;;22.20;43.60;;;;;;5019952;28;20554;-64
2023/10/23 09:01:50;;;;;;;1.13;1.00;;;22.20;43.60;;;;;;5033290;28;20474;-65
2023/10/23 09:04:15;;;;;;;1.20;1.10;;;22.20;43.60;;;;;;5028825;28;20222;-64
2023/10/23 09:06:42;;;;;;;1.20;1.10;;;22.20;43.60;;;;;;5034036;28;21037;-65
2023/10/23 09:09:07;;;;;;;1.20;1.10;;;22.20;43.60;;;;;;5026974;28;20218;-65
2023/10/23 09:11:48;;;;;;;1.10;1.00;;;22.20;43.60;;;;;;5024211;28;20463;-65
2023/10/23 09:14:28;;;;;;;1.53;0.97;;;22.20;43.60;;;;;;5010179;28;20308;-65
2023/10/23 09:16:55;;;;;;;3.23;1.10;;;22.20;43.60;;;;;;5028780;28;20524;-65
2023/10/23 09:19:24;;;;;;;1.67;1.00;;;22.20;43.60;;;;;;5025594;28;20440;-65
2023/10/23 09:21:53;;;;;;;1.07;0.97;;;22.20;43.60;;;;;;5025243;28;20551;-65
2023/10/23 09:24:19;;;;;;;1.07;1.00;;;22.20;43.60;;;;;;5010969;28;20477;-65
2023/10/23 09:26:44;;;;;;;1.27;1.17;;;22.20;43.60;;;;;;5010620;28;20486;-65
2023/10/23 09:29:10;;;;;;;1.30;1.10;;;22.20;43.60;;;;;;5029254;28;20446;-65
2023/10/23 09:31:38;;;;;;;1.20;1.00;;;22.20;43.60;;;;;;5033402;28;20229;-64
2023/10/23 09:34:04;;;;;;;1.00;0.90;;;22.20;43.60;;;;;;5022966;28;20237;-64
2023/10/23 09:36:31;;;;;;;1.30;1.20;;;22.20;43.60;;;;;;5025917;28;20470;-64
2023/10/23 09:38:58;;;;;;;1.47;1.10;;;22.20;43.60;;;;;;5027603;28;20228;-64
2023/10/23 09:41:26;;;;;;;1.10;0.93;;;22.20;43.60;;;;;;5029322;28;20475;-64
2023/10/23 09:43:54;;;;;;;1.20;1.10;;;22.20;43.70;;;;;;5024103;28;20467;-65
2023/10/23 09:46:20;;;;;;;0.97;0.90;;;22.20;43.70;;;;;;5028009;28;20465;-65
2023/10/23 09:48:46;;;;;;;1.10;1.00;;;22.20;43.60;;;;;;5029585;28;20508;-65
2023/10/23 09:51:18;;;;;;;1.60;1.20;;;22.20;43.60;;;;;;5024814;28;20478;-64
2023/10/23 09:53:48;;;;;;;2.97;1.50;;;22.20;43.70;;;;;;5009236;28;20471;-64
2023/10/23 09:56:21;;;;;;;1.40;1.00;;;22.20;43.60;;;;;;5038471;28;20479;-64
2023/10/23 09:58:57;;;;;;;1.20;1.10;;;22.20;43.60;;;;;;5026796;28;22155;-65
2023/10/23 10:01:36;;;;;;;1.37;1.20;;;22.20;43.60;;;;;;5030023;28;20512;-65
2023/10/23 10:04:14;;;;;;;1.40;1.03;;;22.20;43.70;;;;;;5024779;28;20475;-65
2023/10/23 10:06:46;;;;;;;1.20;1.10;;;22.20;43.60;;;;;;5008804;28;20489;-63
2023/10/23 10:09:13;;;;;;;1.20;1.10;;;22.20;43.70;;;;;;5026181;28;20492;-64
2023/10/23 10:11:45;;;;;;;1.30;1.10;;;22.20;43.70;;;;;;5030626;28;20466;-67
2023/10/23 10:14:14;;;;;;;1.43;1.33;;;22.20;43.70;;;;;;5028830;28;20577;-66
2023/10/23 10:16:41;;;;;;;6.43;1.20;;;22.20;43.60;;;;;;5032810;28;20462;-66
2023/10/23 10:19:08;;;;;;;1.17;1.00;;;22.20;43.70;;;;;;5028897;28;20468;-66
2023/10/23 10:21:42;;;;;;;1.20;1.07;;;22.20;43.70;;;;;;5024318;28;20471;-66
2023/10/23 10:24:10;;;;;;;1.37;1.27;;;22.20;43.70;;;;;;5025335;28;20469;-65
2023/10/23 10:26:36;;;;;;;1.27;1.17;;;22.20;43.70;;;;;;5024722;28;20474;-65
2023/10/23 10:29:03;;;;;;;1.30;1.20;;;22.20;43.70;;;;;;5029184;28;20451;-66
2023/10/23 10:31:28;;;;;;;1.40;1.30;;;22.20;43.70;;;;;;5033220;28;20481;-65
2023/10/23 10:33:54;;;;;;;1.50;1.40;;;22.20;43.70;;;;;;5028810;28;20558;-66
2023/10/23 10:36:25;;;;;;;1.60;1.50;;;22.20;43.70;;;;;;5021827;28;20225;-65
2023/10/23 10:38:51;;;;;;;2.23;1.50;;;22.20;43.60;;;;;;5027426;28;20883;-65
2023/10/23 10:41:18;;;;;;;1.50;1.40;;;22.20;43.70;;;;;;5026788;28;20467;-66
2023/10/23 10:43:51;;;;;;;1.30;1.20;;;22.20;43.70;;;;;;5028804;28;20582;-65
2023/10/23 10:46:24;;;;;;;1.20;1.10;;;22.20;43.70;;;;;;5023955;28;20489;-66
2023/10/23 10:48:54;;;;;;;1.70;1.60;;;22.20;43.60;;;;;;5031906;28;20466;-65
2023/10/23 10:51:21;;;;;;;1.30;1.20;;;22.20;43.70;;;;;;5025295;28;20467;-66
2023/10/23 10:53:48;;;;;;;1.60;1.50;;;22.20;43.70;;;;;;5032201;28;20562;-65
2023/10/23 10:56:14;;;;;;;1.40;1.30;;;22.20;43.80;;;;;;5013054;28;21342;-65
2023/10/23 10:58:45;;;;;;;1.40;1.30;;;22.20;43.70;;;;;;5040432;28;20463;-64
2023/10/23 11:01:11;;;;;;;1.60;1.50;;;22.20;43.70;;;;;;5031969;28;20512;-66
2023/10/23 11:03:37;;;;;;;2.13;1.40;;;22.20;43.70;;;;;;5032680;28;21041;-65
2023/10/23 11:06:06;;;;;;;1.60;1.50;;;22.20;43.70;;;;;;5023712;28;21271;-65
2023/10/23 11:08:32;;;;;;;1.50;1.40;;;22.20;43.70;;;;;;5025508;28;20226;-66
2023/10/23 11:11:01;;;;;;;1.43;1.07;;;22.20;43.70;;;;;;5010797;28;20516;-65
2023/10/23 11:13:27;;;;;;;1.50;1.40;;;22.20;43.70;;;;;;5027205;28;20238;-64
2023/10/23 11:15:56;;;;;;;1.50;1.40;;;22.20;43.70;;;;;;5027054;28;20447;-65
2023/10/23 11:18:22;;;;;;;3.40;1.30;;;22.20;43.70;;;;;;5033458;28;20226;-65
2023/10/23 11:20:48;;;;;;;1.87;1.77;;;22.20;43.70;;;;;;5040137;28;20788;-65
2023/10/23 11:23:17;;;;;;;1.43;1.33;;;22.20;43.70;;;;;;5032109;28;20226;-65
2023/10/23 11:25:48;;;;;;;1.57;1.47;;;22.20;43.70;;;;;;5027395;28;20470;-65
2023/10/23 11:28:16;;;;;;;1.43;1.33;;;22.20;43.70;;;;;;5032463;28;20481;-66
2023/10/23 11:30:46;;;;;;;1.40;1.30;;;22.20;43.70;;;;;;5033159;28;20545;-65
2023/10/23 11:33:13;;;;;;;1.40;1.30;;;22.20;43.70;;;;;;5032256;28;20471;-65
2023/10/23 11:35:41;;;;;;;1.90;1.80;;;22.20;43.70;;;;;;5012897;28;20737;-66
2023/10/23 11:38:14;;;;;;;1.73;1.63;;;22.20;43.70;;;;;;5027547;28;20629;-66
2023/10/23 11:40:42;;;;;;;1.83;1.73;;;22.20;43.70;;;;;;5025442;28;20463;-65
2023/10/23 11:43:13;;;;;;;1.70;1.53;;;22.20;43.70;;;;;;5029059;28;21240;-65
2023/10/23 11:45:40;;;;;;;1.60;1.50;;;22.20;43.70;;;;;;5028724;28;20463;-66
2023/10/23 11:48:11;;;;;;;1.33;1.23;;;22.20;43.70;;;;;;5027744;28;21223;-65
2023/10/23 11:50:38;;;;;;;1.87;1.27;;;22.20;43.70;;;;;;5012245;28;20486;-66
2023/10/23 11:53:04;;;;;;;1.47;1.37;;;22.10;43.60;;;;;;5026526;28;21804;-65
2023/10/23 11:55:30;;;;;;;1.50;1.40;;;22.20;43.70;;;;;;5030219;28;20483;-65
2023/10/23 11:57:56;;;;;;;1.50;1.40;;;22.10;43.60;;;;;;5012443;28;20854;-66
2023/10/23 12:00:23;;;;;;;1.50;1.40;;;22.10;43.60;;;;;;5030933;28;20534;-65
2023/10/23 12:02:49;;;;;;;1.50;1.40;;;22.20;43.70;;;;;;5040769;28;20234;-65
2023/10/23 12:05:22;;;;;;;1.37;1.27;;;22.10;44.40;;;;;;5030138;28;20451;-65
2023/10/23 12:07:50;;;;;;;1.40;1.30;;;22.10;43.60;;;;;;5029027;28;20911;-65
2023/10/23 12:10:19;;;;;;;1.40;1.30;;;22.20;43.80;;;;;;5023479;28;20459;-65
2023/10/23 12:12:45;;;;;;;1.30;1.20;;;22.10;43.60;;;;;;5026011;28;20498;-65
2023/10/23 12:15:13;;;;;;;1.60;1.50;;;22.10;43.60;;;;;;5025913;28;20478;-65
2023/10/23 12:17:40;;;;;;;1.30;1.20;;;22.10;43.60;;;;;;5025430;28;20528;-66
2023/10/23 12:20:07;;;;;;;1.50;1.40;;;22.10;43.70;;;;;;5025707;28;21019;-65
2023/10/23 12:22:35;;;;;;;1.50;1.40;;;22.10;43.60;;;;;;5009105;28;20951;-66
2023/10/23 12:25:02;;;;;;;1.40;1.30;;;22.10;43.60;;;;;;5028412;28;20657;-65
2023/10/23 12:27:27;;;;;;;2.77;2.07;;;22.10;43.60;;;;;;5024786;28;20459;-64
2023/10/23 12:29:53;;;;;;;2.23;1.40;;;22.10;43.60;;;;;;5032213;28;20777;-65
2023/10/23 12:32:18;;;;;;;1.30;1.20;;;22.10;43.70;;;;;;5027191;28;20603;-65
2023/10/23 12:34:44;;;;;;;1.40;1.30;;;22.10;43.70;;;;;;5044784;28;20248;-64
2023/10/23 12:37:09;;;;;;;1.13;1.10;;;22.10;43.70;;;;;;5031514;28;20406;-65
2023/10/23 12:39:35;;;;;;;1.37;1.27;;;22.10;43.70;;;;;;5025525;28;20236;-65
2023/10/23 12:42:00;;;;;;;1.50;1.40;;;22.10;43.60;;;;;;5030626;28;20229;-64
2023/10/23 12:44:26;;;;;;;1.30;1.20;;;22.10;43.60;;;;;;5027013;28;21056;-65